createdAt,value
2022-07-29T00:03:24.037Z,83.95
2022-07-29T00:08:22.677Z,100.68
2022-07-29T00:13:32.372Z,93.80
2022-07-29T00:18:21.175Z,75.55
2022-07-29T00:23:16.882Z,81.72
2022-07-29T00:28:16.226Z,100.54
2022-07-29T00:33:18.427Z,85.93
2022-07-29T00:38:14.354Z,72.75
2022-07-29T00:43:13.625Z,80.16
2022-07-29T00:48:15.942Z,97.54
2022-07-29T00:53:12.814Z,74.41
2022-07-29T00:58:12.004Z,71.26
2022-07-29T01:03:11.297Z,79.28
2022-07-29T01:08:10.422Z,66.43
2022-07-29T01:13:09.413Z,67.52
2022-07-29T01:18:11.725Z,65.96
2022-07-29T01:23:07.627Z,69.54
2022-07-29T01:28:07.011Z,72.02
2022-07-29T01:33:09.096Z,71.06
2022-07-29T01:38:05.301Z,70.35
2022-07-29T01:43:05.567Z,71.63
2022-07-29T01:48:07.733Z,71.22
2022-07-29T01:53:03.556Z,69.50
2022-07-29T01:58:02.785Z,73.03
2022-07-29T02:03:02.018Z,70.76
2022-07-29T02:08:01.056Z,72.46
2022-07-29T02:13:00.253Z,71.40
2022-07-29T02:18:02.603Z,71.38
2022-07-29T02:22:58.390Z,69.24
2022-07-29T02:27:57.713Z,71.73
2022-07-29T02:33:00.162Z,65.41
2022-07-29T02:37:56.926Z,66.44
2022-07-29T02:42:56.114Z,67.90
2022-07-29T02:47:58.558Z,69.62
2022-07-29T02:52:56.558Z,66.43
2022-07-29T02:57:54.054Z,68.04
2022-07-29T03:02:52.723Z,67.86
2022-07-29T03:07:51.995Z,65.99
2022-07-29T03:12:52.331Z,66.50
2022-07-29T03:17:54.474Z,67.75
2022-07-29T03:22:50.084Z,71.40
2022-07-29T03:27:52.548Z,74.01
2022-07-29T03:32:52.550Z,74.73
2022-07-29T03:37:47.588Z,70.74
2022-07-29T03:42:46.988Z,67.35
2022-07-29T03:47:51.753Z,65.06
2022-07-29T03:52:46.559Z,67.26
2022-07-29T03:57:46.037Z,62.89
2022-07-29T04:02:48.462Z,66.24
2022-07-29T04:07:48.325Z,68.69
2022-07-29T04:12:47.698Z,64.69
2022-07-29T04:17:47.575Z,68.88
2022-07-29T04:22:43.746Z,66.83
2022-07-29T04:27:42.964Z,67.88
2022-07-29T04:32:46.110Z,71.12
2022-07-29T04:37:43.127Z,68.49
2022-07-29T04:42:46.316Z,71.24
2022-07-29T04:47:43.598Z,71.68
2022-07-29T04:52:39.862Z,71.19
2022-07-29T04:57:39.785Z,73.50
2022-07-29T05:02:42.600Z,65.68
2022-07-29T05:07:41.547Z,67.90
2022-07-29T05:12:40.866Z,70.76
2022-07-29T05:17:39.878Z,66.54
2022-07-29T05:22:35.617Z,68.79
2022-07-29T05:27:34.864Z,65.12
2022-07-29T05:32:37.523Z,68.09
2022-07-29T05:37:33.056Z,67.63
2022-07-29T05:42:32.567Z,65.22
2022-07-29T05:47:35.185Z,69.48
2022-07-29T05:52:30.620Z,73.18
2022-07-29T05:57:29.961Z,65.59
2022-07-29T06:02:29.773Z,63.16
2022-07-29T06:07:28.417Z,69.54
2022-07-29T06:12:27.538Z,65.53
2022-07-29T06:17:26.814Z,63.46
2022-07-29T06:22:29.088Z,64.04
2022-07-29T06:27:26.062Z,65.23
2022-07-29T06:32:27.970Z,62.12
2022-07-29T06:37:23.682Z,70.81
2022-07-29T06:42:22.870Z,61.24
2022-07-29T06:47:25.229Z,61.66
2022-07-29T06:52:21.304Z,61.72
2022-07-29T06:57:20.581Z,60.27
2022-07-29T07:02:20.224Z,64.92
2022-07-29T07:07:19.349Z,61.32
2022-07-29T07:12:18.519Z,57.63
2022-07-29T07:17:20.934Z,60.37
2022-07-29T07:22:20.511Z,60.36
2022-07-29T07:27:17.050Z,59.00
2022-07-29T07:32:15.881Z,60.10
2022-07-29T07:37:18.085Z,58.68
2022-07-29T07:42:14.468Z,57.61
2022-07-29T07:47:17.052Z,57.54
2022-07-29T07:52:13.022Z,54.23
2022-07-29T07:57:12.245Z,52.57
2022-07-29T08:02:15.896Z,52.47
2022-07-29T08:07:14.178Z,54.06
2022-07-29T08:12:10.164Z,55.05
2022-07-29T08:17:12.621Z,60.19
2022-07-29T08:22:08.844Z,56.87
2022-07-29T08:27:33.499Z,60.38
2022-07-29T08:32:07.473Z,57.63
2022-07-29T08:37:06.934Z,60.84
2022-07-29T08:42:06.283Z,62.11
2022-07-29T08:47:08.726Z,55.05
2022-07-29T08:52:04.911Z,57.12
2022-07-29T08:57:04.429Z,58.93
2022-07-29T09:02:04.984Z,55.04
2022-07-29T09:07:06.668Z,60.32
2022-07-29T09:12:02.812Z,59.81
2022-07-29T09:17:03.453Z,60.12
2022-07-29T09:22:05.006Z,59.33
2022-07-29T09:27:01.538Z,55.61
2022-07-29T09:32:01.160Z,59.39
2022-07-29T09:37:03.861Z,58.44
2022-07-29T09:41:59.823Z,61.45
2022-07-29T09:47:00.008Z,59.48
2022-07-29T09:52:01.955Z,60.38
2022-07-29T09:56:58.536Z,60.19
2022-07-29T10:02:01.117Z,57.69
2022-07-29T10:07:04.285Z,60.90
2022-07-29T10:11:56.789Z,59.77
2022-07-29T10:16:56.414Z,57.62
2022-07-29T10:21:59.110Z,56.92
2022-07-29T10:26:56.119Z,58.03
2022-07-29T10:31:54.863Z,56.73
2022-07-29T10:36:53.985Z,58.14
2022-07-29T10:41:56.707Z,55.82
2022-07-29T10:46:52.939Z,55.01
2022-07-29T10:51:52.266Z,51.13
2022-07-29T10:56:54.971Z,54.78
2022-07-29T11:01:54.249Z,55.75
2022-07-29T11:06:51.966Z,55.96
2022-07-29T11:11:51.757Z,53.42
2022-07-29T11:16:53.789Z,53.04
2022-07-29T11:26:55.436Z,54.77
2022-07-29T11:31:49.183Z,54.52
2022-07-29T11:36:52.848Z,55.63
2022-07-29T11:41:49.035Z,56.83
2022-07-29T11:46:48.507Z,58.29
2022-07-29T11:51:48.580Z,52.26
2022-07-29T11:56:50.880Z,54.43
2022-07-29T12:01:47.295Z,58.96
2022-07-29T12:06:46.506Z,50.62
2022-07-29T12:11:55.496Z,46.88
2022-07-29T12:16:49.112Z,51.49
2022-07-29T12:21:52.240Z,56.83
2022-07-29T12:26:48.619Z,53.94
2022-07-29T12:31:48.127Z,55.24
2022-07-29T12:36:45.242Z,53.82
2022-07-29T12:41:44.625Z,57.39
2022-07-29T12:46:44.532Z,59.64
2022-07-29T12:51:47.247Z,62.07
2022-07-29T12:56:44.742Z,62.38
2022-07-29T13:01:43.772Z,60.15
2022-07-29T13:06:45.988Z,61.17
2022-07-29T13:11:48.618Z,55.16
2022-07-29T13:16:43.922Z,57.51
2022-07-29T13:21:42.564Z,59.88
2022-07-29T13:26:46.232Z,59.94
2022-07-29T13:31:42.319Z,59.03
2022-07-29T13:36:45.104Z,56.76
2022-07-29T13:41:41.507Z,55.52
2022-07-29T13:46:41.425Z,56.30
2022-07-29T13:51:41.428Z,57.50
2022-07-29T13:56:43.942Z,60.16
2022-07-29T14:01:43.855Z,58.33
2022-07-29T14:06:43.420Z,56.76
2022-07-29T14:11:40.289Z,58.17
2022-07-29T14:16:47.880Z,59.28
2022-07-29T14:21:39.128Z,61.99
2022-07-29T14:26:42.058Z,61.83
2022-07-29T14:31:38.440Z,60.51
2022-07-29T14:36:38.339Z,63.34
2022-07-29T14:41:40.814Z,62.86
2022-07-29T14:46:38.289Z,62.46
2022-07-29T14:51:36.872Z,58.19
2022-07-29T14:56:46.624Z,61.89
2022-07-29T15:01:36.143Z,59.25
2022-07-29T15:06:35.660Z,61.30
2022-07-29T15:11:38.874Z,61.13
2022-07-29T15:16:34.807Z,62.48
2022-07-29T15:21:41.605Z,63.09
2022-07-29T15:26:33.923Z,62.05
2022-07-29T15:31:36.646Z,62.13
2022-07-29T15:36:51.553Z,61.24
2022-07-29T15:41:36.602Z,62.78
2022-07-29T15:46:32.249Z,62.09
2022-07-29T15:51:32.069Z,61.69
2022-07-29T15:56:31.889Z,61.01
2022-07-29T16:01:31.244Z,62.86
2022-07-29T16:06:30.680Z,63.04
2022-07-29T16:11:33.158Z,59.54
2022-07-29T16:16:30.088Z,59.26
2022-07-29T16:21:32.292Z,59.70
2022-07-29T16:26:29.033Z,57.18
2022-07-29T16:31:31.620Z,53.55
2022-07-29T16:36:31.702Z,55.53
2022-07-29T16:41:27.346Z,60.65
2022-07-29T16:46:27.284Z,54.86
2022-07-29T16:51:26.964Z,54.25
2022-07-29T16:56:26.055Z,54.40
2022-07-29T17:01:28.704Z,59.39
2022-07-29T17:06:28.420Z,59.43
2022-07-29T17:11:51.996Z,59.08
2022-07-29T17:16:27.403Z,58.72
2022-07-29T17:21:23.610Z,58.62
2022-07-29T17:26:23.299Z,57.76
2022-07-29T17:31:26.087Z,59.60
2022-07-29T17:36:22.201Z,60.02
2022-07-29T17:41:21.774Z,60.06
2022-07-29T17:46:21.348Z,55.69
2022-07-29T17:51:23.654Z,55.89
2022-07-29T17:56:20.112Z,57.36
2022-07-29T18:01:19.593Z,59.46
2022-07-29T18:06:18.979Z,58.57
2022-07-29T18:11:21.652Z,55.99
2022-07-29T18:16:18.461Z,59.11
2022-07-29T18:21:22.677Z,58.27
2022-07-29T18:26:16.705Z,58.75
2022-07-29T18:31:16.402Z,55.24
2022-07-29T18:36:18.938Z,56.75
2022-07-29T18:41:18.250Z,57.09
2022-07-29T18:46:15.232Z,56.20
2022-07-29T18:51:14.245Z,54.86
2022-07-29T18:56:13.864Z,56.04
2022-07-29T19:01:16.893Z,58.11
2022-07-29T19:06:16.211Z,55.44
2022-07-29T19:11:11.873Z,55.17
2022-07-29T19:16:11.586Z,55.24
2022-07-29T19:21:13.924Z,55.61
2022-07-29T19:26:10.308Z,54.95
2022-07-29T19:31:09.733Z,56.20
2022-07-29T19:36:12.425Z,54.52
2022-07-29T19:41:09.018Z,55.75
2022-07-29T19:46:08.066Z,54.95
2022-07-29T19:51:10.449Z,53.66
2022-07-29T19:56:08.863Z,53.41
2022-07-29T20:01:10.477Z,53.48
2022-07-29T20:06:05.833Z,52.24
2022-07-29T20:11:08.343Z,92.13
2022-07-29T20:16:04.634Z,71.07
2022-07-29T20:21:04.906Z,61.12
2022-07-29T20:26:07.311Z,70.70
2022-07-29T20:31:06.491Z,93.11
2022-07-29T20:36:02.474Z,81.26
2022-07-29T20:41:05.315Z,56.78
2022-07-29T20:46:01.393Z,66.55
2022-07-29T20:51:03.935Z,87.94
2022-07-29T20:56:00.062Z,86.77
2022-07-29T21:00:59.805Z,56.94
2022-07-29T21:06:00.061Z,67.64
2022-07-29T21:10:58.537Z,88.44
2022-07-29T21:15:57.923Z,98.79
2022-07-29T21:21:00.336Z,62.07
2022-07-29T21:25:56.597Z,70.27
2022-07-29T21:30:56.031Z,83.24
2022-07-29T21:36:20.179Z,97.65
2022-07-29T21:40:54.820Z,65.99
2022-07-29T21:45:54.400Z,70.02
2022-07-29T21:50:56.860Z,85.20
2022-07-29T21:55:53.185Z,100.08
2022-07-29T22:00:55.687Z,69.95
2022-07-29T22:05:55.394Z,74.04
2022-07-29T22:27:44.220Z,59.98
2022-07-29T22:33:33.990Z,91.54
2022-07-29T22:38:32.875Z,105.17
2022-07-29T22:43:46.404Z,131.60
2022-07-29T22:49:44.222Z,101.19
2022-07-29T22:54:40.151Z,77.47
2022-07-29T22:59:42.846Z,84.75
2022-07-29T23:04:42.003Z,101.69
2022-07-29T23:09:38.367Z,94.60
2022-07-29T23:14:40.806Z,69.80
2022-07-29T23:19:37.085Z,80.88
2022-07-29T23:24:36.556Z,97.33
2022-07-29T23:29:39.154Z,88.93
2022-07-29T23:34:35.316Z,73.61
2022-07-29T23:39:38.145Z,81.00
2022-07-29T23:44:33.875Z,98.34
2022-07-29T23:49:33.417Z,85.56
2022-07-29T23:54:35.789Z,72.08
2022-07-29T23:59:32.203Z,81.78
